Time;durP1;ratioP1;P1;durP2;ratioP2;P2;SDS_P1;SDS_P2;PMS_P1;PMS_P2;Temp;Humidity;BMP_temperature;BMP_pressure;BME280_temperature;BME280_humidity;BME280_pressure;Samples;Min_cycle;Max_cycle;Signal;HPM_P1;HPM_P2
2022/06/22 00:00:18;;;;;;;3.95;2.28;;;15.90;99.90;;;;;;5074949;28;20039;-73
2022/06/22 00:02:48;;;;;;;9.43;3.17;;;15.80;99.90;;;;;;5071323;28;20028;-72
2022/06/22 00:05:19;;;;;;;8.60;3.95;;;15.70;99.90;;;;;;5060326;28;20452;-73
2022/06/22 00:07:52;;;;;;;5.35;2.65;;;15.70;99.90;;;;;;5058941;28;20028;-73
2022/06/22 00:10:28;;;;;;;5.35;2.55;;;15.70;99.90;;;;;;5054351;28;20037;-73
2022/06/22 00:12:57;;;;;;;9.95;2.92;;;15.60;99.90;;;;;;5055770;28;20021;-73
2022/06/22 00:15:50;;;;;;;5.10;2.10;;;15.60;99.90;;;;;;5058972;28;20036;-73
2022/06/22 00:18:40;;;;;;;6.13;1.85;;;15.60;99.90;;;;;;5057825;28;20029;-73
2022/06/22 00:21:36;;;;;;;3.35;1.67;;;15.50;99.90;;;;;;5059883;28;20028;-73
2022/06/22 00:24:22;;;;;;;11.60;3.45;;;15.50;99.90;;;;;;5054483;28;20020;-73
2022/06/22 00:26:55;;;;;;;5.13;2.72;;;15.40;99.90;;;;;;5056171;28;20037;-73
2022/06/22 00:29:34;;;;;;;7.10;2.63;;;15.40;99.90;;;;;;5053736;28;20012;-73
2022/06/22 00:32:03;;;;;;;3.85;2.25;;;15.30;99.90;;;;;;5055819;28;20361;-73
2022/06/22 00:34:34;;;;;;;5.68;2.83;;;15.30;99.90;;;;;;5056405;28;20032;-73
2022/06/22 00:37:13;;;;;;;5.00;2.72;;;15.20;99.90;;;;;;5058030;28;20017;-73
2022/06/22 00:39:46;;;;;;;6.13;3.47;;;15.20;99.90;;;;;;5056033;28;20037;-73
2022/06/22 00:42:28;;;;;;;8.82;3.22;;;15.20;99.90;;;;;;5055376;28;20020;-73
2022/06/22 00:45:09;;;;;;;6.40;2.75;;;15.20;99.90;;;;;;5056676;28;20038;-73
2022/06/22 00:47:55;;;;;;;3.63;2.15;;;15.10;99.90;;;;;;5057925;28;20395;-75
2022/06/22 00:50:35;;;;;;;6.60;2.83;;;15.10;99.90;;;;;;5055916;28;20039;-75
2022/06/22 00:53:04;;;;;;;5.80;3.17;;;15.10;99.90;;;;;;5058995;28;20025;-75
2022/06/22 00:55:37;;;;;;;6.78;3.53;;;15.00;99.90;;;;;;5051166;28;20449;-74
2022/06/22 00:58:34;;;;;;;5.45;2.78;;;15.00;99.90;;;;;;5079546;28;20024;-76
2022/06/22 01:01:22;;;;;;;8.73;3.10;;;14.90;99.90;;;;;;5061896;28;20044;-75
2022/06/22 01:03:54;;;;;;;6.75;2.92;;;14.90;99.90;;;;;;5061555;28;20471;-75
2022/06/22 01:07:10;;;;;;;6.13;3.08;;;14.90;99.90;;;;;;5062245;28;20483;-75
2022/06/22 01:09:58;;;;;;;8.95;3.90;;;14.90;99.90;;;;;;5050055;28;20033;-75
2022/06/22 01:12:59;;;;;;;6.13;3.67;;;14.90;99.90;;;;;;5059154;28;20035;-75
2022/06/22 01:15:30;;;;;;;7.30;3.60;;;14.80;99.90;;;;;;5007714;28;20037;-75
2022/06/22 01:18:20;;;;;;;8.38;4.22;;;14.80;99.90;;;;;;5058634;28;20028;-75
2022/06/22 01:21:18;;;;;;;5.80;3.58;;;14.80;99.90;;;;;;5056454;28;20039;-75
2022/06/22 01:23:56;;;;;;;6.43;3.63;;;14.70;99.90;;;;;;5072721;28;20036;-76
2022/06/22 01:26:56;;;;;;;6.82;4.38;;;14.70;99.90;;;;;;5057396;28;20059;-76
2022/06/22 01:29:24;;;;;;;7.38;4.15;;;14.70;99.90;;;;;;5054400;28;20033;-75
2022/06/22 01:32:01;;;;;;;8.82;3.67;;;14.70;99.90;;;;;;5055886;28;20020;-75
2022/06/22 01:34:44;;;;;;;9.88;4.18;;;14.70;99.90;;;;;;5053879;28;20032;-75
2022/06/22 01:37:24;;;;;;;8.38;4.57;;;14.70;99.90;;;;;;5057499;28;20032;-75
2022/06/22 01:39:56;;;;;;;7.53;4.97;;;14.70;99.90;;;;;;5051143;28;20024;-75
2022/06/22 01:42:40;;;;;;;9.85;5.93;;;14.70;99.90;;;;;;5038340;28;20033;-75
2022/06/22 01:45:40;;;;;;;7.85;4.95;;;14.60;99.90;;;;;;5042486;28;20017;-75
2022/06/22 01:48:28;;;;;;;6.85;4.78;;;14.60;99.90;;;;;;5036865;28;20088;-75
2022/06/22 01:51:05;;;;;;;9.80;5.35;;;14.60;99.90;;;;;;5055746;28;20456;-76
2022/06/22 01:53:34;;;;;;;8.73;4.28;;;14.60;99.90;;;;;;5056681;28;20017;-75
2022/06/22 01:56:08;;;;;;;7.72;4.63;;;14.50;99.90;;;;;;5055504;28;20091;-75
2022/06/22 01:58:42;;;;;;;9.82;5.75;;;14.50;99.90;;;;;;5065330;28;20024;-75
2022/06/22 02:01:33;;;;;;;6.97;4.30;;;14.50;99.90;;;;;;5057557;28;20025;-76
2022/06/22 02:04:15;;;;;;;6.78;4.53;;;14.40;99.90;;;;;;5052716;28;20024;-75
2022/06/22 02:09:47;;;;;;;10.27;5.97;;;14.40;99.90;;;;;;5053412;28;20569;-75
2022/06/22 02:12:20;;;;;;;7.97;5.22;;;14.30;99.90;;;;;;5054340;28;20025;-75
2022/06/22 02:14:52;;;;;;;8.05;4.85;;;14.30;99.90;;;;;;5056062;28;20025;-73
2022/06/22 02:17:24;;;;;;;10.50;5.88;;;14.30;99.90;;;;;;5058696;28;20036;-73
2022/06/22 02:20:18;;;;;;;5.78;4.35;;;14.20;99.90;;;;;;5050856;28;20017;-73
2022/06/22 02:22:50;;;;;;;7.47;4.72;;;14.20;99.90;;;;;;5053943;28;20021;-74
2022/06/22 02:25:19;;;;;;;7.72;5.00;;;14.20;99.90;;;;;;5074613;28;20017;-73
2022/06/22 02:27:46;;;;;;;10.02;5.28;;;14.20;99.90;;;;;;5058683;28;20025;-74
2022/06/22 02:30:12;;;;;;;9.10;5.95;;;14.20;99.90;;;;;;5050140;28;20452;-75
2022/06/22 02:32:42;;;;;;;11.20;7.00;;;14.10;99.90;;;;;;5036362;28;20560;-75
2022/06/22 02:35:11;;;;;;;10.07;5.88;;;14.10;99.90;;;;;;5055444;28;20036;-76
2022/06/22 02:37:42;;;;;;;11.57;6.85;;;14.10;99.90;;;;;;5058009;28;20021;-76
2022/06/22 02:40:16;;;;;;;10.32;7.22;;;14.10;99.90;;;;;;5071609;28;20025;-76
2022/06/22 02:45:28;;;;;;;9.52;6.20;;;14.00;99.90;;;;;;5069020;28;20044;-76
2022/06/22 02:48:13;;;;;;;6.82;4.93;;;14.10;99.90;;;;;;5058033;28;20028;-75
2022/06/22 02:50:50;;;;;;;7.63;4.75;;;14.00;99.90;;;;;;5055995;28;20356;-75
2022/06/22 02:53:25;;;;;;;10.98;7.10;;;14.00;99.90;;;;;;5055288;28;20020;-75
2022/06/22 02:55:53;;;;;;;12.05;6.93;;;14.00;99.90;;;;;;5056368;28;20029;-73
2022/06/22 02:58:38;;;;;;;7.65;4.25;;;14.00;99.90;;;;;;5052154;28;20032;-74
2022/06/22 03:01:15;;;;;;;9.48;6.45;;;14.00;99.90;;;;;;5071863;28;20036;-73
2022/06/22 03:03:48;;;;;;;11.10;5.93;;;13.90;99.90;;;;;;5054035;28;20025;-74
2022/06/22 03:06:16;;;;;;;8.02;5.75;;;13.90;99.90;;;;;;5069961;28;20017;-73
2022/06/22 03:08:43;;;;;;;6.93;6.18;;;13.90;99.90;;;;;;5051509;28;20037;-73
2022/06/22 03:11:12;;;;;;;9.07;6.85;;;13.90;99.90;;;;;;5054078;28;20372;-73
2022/06/22 03:13:38;;;;;;;9.63;5.72;;;13.80;99.90;;;;;;5052279;28;20907;-73
2022/06/22 03:16:24;;;;;;;12.32;7.18;;;13.80;99.90;;;;;;5056466;28;20083;-74
2022/06/22 03:19:03;;;;;;;5.57;4.45;;;13.80;99.90;;;;;;5037310;28;20373;-75
2022/06/22 03:21:31;;;;;;;8.90;5.60;;;13.70;99.90;;;;;;5057578;28;20499;-75
2022/06/22 03:24:11;;;;;;;9.88;6.00;;;13.70;99.90;;;;;;5059068;28;20020;-75
2022/06/22 03:26:47;;;;;;;11.68;7.53;;;13.70;99.90;;;;;;5059262;28;20483;-75
2022/06/22 03:29:32;;;;;;;14.70;8.00;;;13.70;99.90;;;;;;5056848;28;20017;-74
2022/06/22 03:32:33;;;;;;;11.32;6.28;;;13.70;99.90;;;;;;5076096;28;20024;-75
2022/06/22 03:35:15;;;;;;;6.53;4.75;;;13.70;99.90;;;;;;5049539;28;20032;-75
2022/06/22 03:37:49;;;;;;;7.43;5.23;;;13.70;99.90;;;;;;5062091;28;20063;-75
2022/06/22 03:40:22;;;;;;;6.70;4.55;;;13.70;99.90;;;;;;5053847;28;20302;-75
2022/06/22 03:42:54;;;;;;;9.02;5.65;;;13.70;99.90;;;;;;5056867;28;20016;-75
2022/06/22 03:45:25;;;;;;;9.70;6.30;;;13.70;99.90;;;;;;5060897;28;20017;-75
2022/06/22 03:48:09;;;;;;;8.93;7.13;;;13.60;99.90;;;;;;5079570;28;20032;-75
2022/06/22 03:51:07;;;;;;;7.75;6.30;;;13.60;99.90;;;;;;5056610;28;20359;-74
2022/06/22 03:53:48;;;;;;;8.55;6.60;;;13.60;99.90;;;;;;5057732;28;20027;-75
2022/06/22 03:56:17;;;;;;;8.25;6.60;;;13.70;99.90;;;;;;5059329;28;20376;-75
2022/06/22 03:58:47;;;;;;;9.02;6.70;;;13.70;99.90;;;;;;5052839;28;20025;-75
2022/06/22 04:01:15;;;;;;;10.57;5.82;;;13.70;99.90;;;;;;5058160;28;20032;-75
2022/06/22 04:03:42;;;;;;;9.70;7.63;;;13.70;99.90;;;;;;5060877;28;20032;-75
2022/06/22 04:06:21;;;;;;;8.15;6.03;;;13.70;99.90;;;;;;5058307;28;20017;-75
2022/06/22 04:08:47;;;;;;;6.20;4.63;;;13.70;99.90;;;;;;5055487;28;20020;-75
2022/06/22 04:11:37;;;;;;;10.82;6.18;;;13.80;99.90;;;;;;5059081;28;20036;-75
2022/06/22 04:14:11;;;;;;;11.25;7.18;;;13.80;99.90;;;;;;5054458;28;20052;-75
2022/06/22 04:16:43;;;;;;;9.32;5.68;;;13.90;99.90;;;;;;5056413;28;20029;-73
2022/06/22 04:19:20;;;;;;;9.27;6.90;;;13.90;99.90;;;;;;5055632;28;20031;-73
2022/06/22 04:21:55;;;;;;;10.52;6.95;;;14.00;99.90;;;;;;5055254;28;20364;-74
2022/06/22 04:24:29;;;;;;;11.50;6.53;;;14.00;99.90;;;;;;5055637;28;20028;-73
2022/06/22 04:27:05;;;;;;;10.13;6.85;;;14.10;99.90;;;;;;5074793;28;20020;-75
2022/06/22 04:29:48;;;;;;;5.07;4.57;;;14.20;99.90;;;;;;5055230;28;20299;-75
2022/06/22 04:32:23;;;;;;;10.32;6.57;;;14.20;99.90;;;;;;5073818;28;20036;-75
2022/06/22 04:34:59;;;;;;;8.35;5.53;;;14.40;99.90;;;;;;5055003;28;20020;-73
2022/06/22 04:37:35;;;;;;;7.72;5.32;;;14.40;99.90;;;;;;5057149;28;20013;-73
2022/06/22 04:40:21;;;;;;;10.05;6.35;;;14.50;99.90;;;;;;5067143;28;20043;-74
2022/06/22 04:42:53;;;;;;;12.18;7.80;;;14.70;99.90;;;;;;5055891;28;20028;-73
2022/06/22 04:45:31;;;;;;;14.13;9.27;;;14.80;99.90;;;;;;5042395;28;20471;-75
2022/06/22 04:48:06;;;;;;;10.40;7.82;;;14.90;99.90;;;;;;5054145;28;20455;-75
2022/06/22 04:50:38;;;;;;;16.00;10.07;;;15.00;99.90;;;;;;5055324;28;20031;-74
2022/06/22 04:53:10;;;;;;;10.40;7.38;;;15.10;99.90;;;;;;5050697;28;20021;-74
2022/06/22 04:55:41;;;;;;;10.27;6.50;;;15.20;99.90;;;;;;5054183;28;20061;-74
2022/06/22 04:58:45;;;;;;;12.43;9.10;;;15.40;99.90;;;;;;5051589;28;20035;-77
2022/06/22 05:01:21;;;;;;;9.68;6.38;;;15.50;99.90;;;;;;5052602;28;20040;-75
2022/06/22 05:03:50;;;;;;;11.15;8.48;;;15.80;99.90;;;;;;5051079;28;20021;-75
2022/06/22 05:06:30;;;;;;;8.18;6.25;;;15.90;99.90;;;;;;5053606;28;20036;-75
2022/06/22 05:09:03;;;;;;;9.48;5.30;;;16.10;99.90;;;;;;5049855;28;20035;-74
2022/06/22 05:11:48;;;;;;;5.88;4.95;;;16.20;99.90;;;;;;5054073;28;20021;-77
2022/06/22 05:14:32;;;;;;;7.82;5.03;;;16.40;99.90;;;;;;5052166;28;20029;-75
2022/06/22 05:17:07;;;;;;;5.45;3.30;;;16.50;99.90;;;;;;5054924;28;20025;-75
2022/06/22 05:19:45;;;;;;;10.07;5.03;;;16.70;99.90;;;;;;5049860;28;20387;-75
2022/06/22 05:22:13;;;;;;;7.32;5.03;;;16.80;99.90;;;;;;5052268;28;20059;-75
2022/06/22 05:24:46;;;;;;;7.97;5.07;;;16.90;99.90;;;;;;5070148;28;20021;-75
2022/06/22 05:27:23;;;;;;;8.02;4.95;;;17.00;99.90;;;;;;5053440;28;20024;-74
2022/06/22 05:30:05;;;;;;;8.85;5.15;;;17.10;99.90;;;;;;5051218;28;20027;-74
2022/06/22 05:32:56;;;;;;;5.63;3.80;;;17.30;99.90;;;;;;5049105;28;21416;-74
2022/06/22 05:35:37;;;;;;;6.80;3.63;;;17.40;99.90;;;;;;5046523;28;20290;-75
2022/06/22 05:38:09;;;;;;;8.27;4.70;;;17.60;99.90;;;;;;5051619;28;20032;-75
2022/06/22 05:40:53;;;;;;;11.77;3.97;;;17.80;99.90;;;;;;5049664;28;20047;-75
2022/06/22 05:43:21;;;;;;;7.15;4.28;;;18.00;99.90;;;;;;5065971;28;20045;-75
2022/06/22 05:46:05;;;;;;;6.93;5.05;;;18.10;99.90;;;;;;5036322;28;20020;-75
2022/06/22 05:48:43;;;;;;;7.18;3.60;;;18.30;99.90;;;;;;5036306;28;20033;-75
2022/06/22 05:51:19;;;;;;;5.30;2.90;;;18.40;99.90;;;;;;5052661;28;20034;-75
2022/06/22 05:54:13;;;;;;;5.88;3.10;;;18.50;99.90;;;;;;5052434;28;20060;-75
2022/06/22 05:56:51;;;;;;;3.58;2.97;;;18.70;99.90;;;;;;5050232;28;20025;-75
2022/06/22 05:59:17;;;;;;;4.40;2.70;;;18.90;99.90;;;;;;5049796;28;20345;-75
2022/06/22 06:02:25;;;;;;;5.93;3.30;;;19.30;99.90;;;;;;5054070;28;20459;-75
2022/06/22 06:05:05;;;;;;;7.40;2.63;;;19.70;99.90;;;;;;5015737;28;20039;-75
2022/06/22 06:07:48;;;;;;;5.90;2.30;;;20.30;99.90;;;;;;5072910;28;20388;-75
2022/06/22 06:10:30;;;;;;;3.95;2.22;;;20.60;99.90;;;;;;5050210;28;20017;-74
2022/06/22 06:13:04;;;;;;;4.88;2.40;;;20.70;99.90;;;;;;5050100;28;20039;-75
2022/06/22 06:15:34;;;;;;;4.65;1.58;;;20.70;99.90;;;;;;5053671;28;20363;-75
2022/06/22 06:18:03;;;;;;;3.20;1.77;;;20.80;99.90;;;;;;5074158;28;20028;-75
2022/06/22 06:20:35;;;;;;;3.40;1.80;;;20.80;99.90;;;;;;5047039;28;20421;-75
2022/06/22 06:23:33;;;;;;;3.70;1.88;;;21.00;99.90;;;;;;5050798;28;20028;-75
2022/06/22 06:29:35;;;;;;;5.13;1.60;;;21.50;99.90;;;;;;5051904;28;20538;-74
2022/06/22 06:32:09;;;;;;;4.70;1.30;;;21.90;98.90;;;;;;5013313;28;20030;-74
2022/06/22 06:34:40;;;;;;;3.80;1.15;;;22.10;98.10;;;;;;5012866;28;20033;-74
2022/06/22 06:37:20;;;;;;;4.72;1.10;;;22.20;97.70;;;;;;5007907;28;20032;-74
2022/06/22 06:39:52;;;;;;;3.28;1.08;;;22.20;97.30;;;;;;5048301;28;20025;-74
2022/06/22 06:42:29;;;;;;;2.72;0.95;;;22.20;97.20;;;;;;5048938;28;20036;-75
2022/06/22 06:44:59;;;;;;;2.75;1.15;;;22.20;97.00;;;;;;5052285;28;20017;-75
2022/06/22 06:47:35;;;;;;;2.83;0.98;;;22.20;96.10;;;;;;5052260;28;20379;-74
2022/06/22 06:50:04;;;;;;;2.25;0.90;;;22.10;96.10;;;;;;5047902;28;20108;-74
2022/06/22 06:53:03;;;;;;;3.13;0.85;;;22.20;95.80;;;;;;5048233;28;20479;-75
2022/06/22 06:55:50;;;;;;;3.60;0.88;;;22.20;95.50;;;;;;5053442;28;20033;-74
2022/06/22 06:58:30;;;;;;;3.00;0.93;;;22.20;95.20;;;;;;5055067;28;20028;-74
2022/06/22 07:00:57;;;;;;;3.58;1.00;;;22.20;94.30;;;;;;5056937;28;20037;-74
2022/06/22 07:03:31;;;;;;;4.18;0.80;;;22.10;94.40;;;;;;5054418;28;20019;-74
2022/06/22 07:05:58;;;;;;;4.45;0.90;;;22.20;94.40;;;;;;5044708;28;20032;-74
2022/06/22 07:08:30;;;;;;;3.30;0.85;;;22.30;94.40;;;;;;5051823;28;20024;-75
2022/06/22 07:11:31;;;;;;;2.17;0.60;;;22.40;94.30;;;;;;5037480;28;20777;-74
2022/06/22 07:14:32;;;;;;;2.42;0.70;;;22.50;94.10;;;;;;5056039;28;20037;-75
2022/06/22 07:17:02;;;;;;;3.45;0.60;;;22.70;94.00;;;;;;5054505;28;20020;-74
2022/06/22 07:19:35;;;;;;;3.30;1.10;;;22.90;93.70;;;;;;5065660;28;20036;-74
2022/06/22 07:22:17;;;;;;;2.58;0.70;;;23.00;93.10;;;;;;5069151;28;20037;-75
2022/06/22 07:24:53;;;;;;;3.92;0.70;;;23.10;92.70;;;;;;5073594;28;20017;-75
2022/06/22 07:27:36;;;;;;;3.13;0.70;;;23.20;92.70;;;;;;5054998;28;20033;-75
2022/06/22 07:30:24;;;;;;;2.85;0.77;;;23.30;92.30;;;;;;5051559;28;20024;-75
2022/06/22 07:33:03;;;;;;;3.40;0.77;;;23.40;91.80;;;;;;5067863;28;20024;-74
2022/06/22 07:35:55;;;;;;;3.92;0.88;;;23.50;91.30;;;;;;5054955;28;20037;-75
2022/06/22 07:38:41;;;;;;;2.88;1.52;;;23.50;91.10;;;;;;5054545;28;20086;-75
2022/06/22 07:41:19;;;;;;;4.55;1.75;;;23.60;90.80;;;;;;5056412;28;20032;-74
2022/06/22 07:44:04;;;;;;;3.80;1.00;;;23.70;90.50;;;;;;5067426;28;20036;-74
2022/06/22 07:46:54;;;;;;;3.70;1.00;;;23.70;90.30;;;;;;5074473;28;20394;-74
2022/06/22 07:49:30;;;;;;;3.83;0.93;;;23.90;89.90;;;;;;5057205;28;20025;-74
2022/06/22 07:51:59;;;;;;;3.10;0.80;;;24.00;88.90;;;;;;5053579;28;20025;-74
2022/06/22 07:54:52;;;;;;;1.60;0.50;;;24.10;87.80;;;;;;5055513;28;20031;-74
2022/06/22 07:57:47;;;;;;;3.53;0.60;;;24.10;87.50;;;;;;5050267;28;20116;-74
2022/06/22 08:00:19;;;;;;;1.98;0.60;;;24.30;87.10;;;;;;5038418;28;20016;-73
2022/06/22 08:03:14;;;;;;;3.67;1.17;;;24.30;85.90;;;;;;5074500;28;20040;-74
2022/06/22 08:05:43;;;;;;;4.45;0.95;;;24.40;84.70;;;;;;5054647;28;20047;-74
2022/06/22 08:08:20;;;;;;;5.07;1.95;;;24.40;84.30;;;;;;5059506;28;20036;-77
2022/06/22 08:11:02;;;;;;;3.95;1.27;;;24.50;83.00;;;;;;5051887;28;20032;-76
2022/06/22 08:13:37;;;;;;;3.65;1.27;;;24.60;82.40;;;;;;5054596;28;20380;-76
2022/06/22 08:16:09;;;;;;;2.25;0.60;;;24.60;82.80;;;;;;5057120;28;20380;-76
2022/06/22 08:18:36;;;;;;;5.13;0.88;;;24.70;81.20;;;;;;5055717;28;20024;-77
2022/06/22 08:21:02;;;;;;;3.35;0.73;;;24.80;79.50;;;;;;5057408;28;20448;-74
2022/06/22 08:23:35;;;;;;;2.42;0.50;;;24.80;78.30;;;;;;5067516;28;20020;-74
2022/06/22 08:26:05;;;;;;;2.22;0.65;;;24.70;77.90;;;;;;5053873;28;22242;-74
2022/06/22 08:28:35;;;;;;;3.05;0.50;;;24.80;77.90;;;;;;5049403;28;20029;-73
2022/06/22 08:31:02;;;;;;;2.00;0.40;;;24.90;78.20;;;;;;5054609;28;20353;-73
2022/06/22 08:33:46;;;;;;;1.70;0.55;;;25.10;78.00;;;;;;5041944;28;20048;-73
2022/06/22 08:36:26;;;;;;;3.63;0.60;;;25.30;75.80;;;;;;5069826;28;20024;-74
2022/06/22 08:39:03;;;;;;;2.28;0.50;;;25.20;75.70;;;;;;5050037;28;20036;-73
2022/06/22 08:41:44;;;;;;;4.28;0.60;;;25.20;75.50;;;;;;5058761;28;20036;-74
2022/06/22 08:44:32;;;;;;;2.25;0.40;;;25.30;75.40;;;;;;5053426;28;20033;-73
2022/06/22 08:47:20;;;;;;;1.60;0.50;;;25.40;74.40;;;;;;5053555;28;20025;-74
2022/06/22 08:50:10;;;;;;;2.45;0.60;;;25.40;72.60;;;;;;5051650;28;20024;-74
2022/06/22 08:53:13;;;;;;;1.50;0.30;;;25.50;71.60;;;;;;5053473;28;20032;-74
2022/06/22 08:55:58;;;;;;;1.75;0.30;;;25.70;71.60;;;;;;5054101;28;20033;-74
2022/06/22 08:58:29;;;;;;;2.35;0.50;;;25.80;71.40;;;;;;5052665;28;20460;-74
2022/06/22 09:01:15;;;;;;;2.15;0.38;;;25.80;69.80;;;;;;5055967;28;20498;-74
2022/06/22 09:04:05;;;;;;;2.63;0.40;;;25.90;69.70;;;;;;5073047;28;20376;-75
2022/06/22 09:06:43;;;;;;;1.95;0.50;;;25.90;69.50;;;;;;5050986;28;20460;-73
2022/06/22 09:09:46;;;;;;;1.83;0.40;;;25.90;67.70;;;;;;5048112;28;20025;-74
2022/06/22 09:12:34;;;;;;;2.83;0.60;;;26.10;68.40;;;;;;5052647;28;20036;-75
2022/06/22 09:15:19;;;;;;;2.58;0.50;;;26.40;67.00;;;;;;5053015;28;20025;-74
2022/06/22 09:18:20;;;;;;;5.32;2.58;;;26.50;66.40;;;;;;5051147;28;20032;-77
2022/06/22 09:21:02;;;;;;;7.97;1.33;;;26.60;66.90;;;;;;5041506;28;20017;-77
2022/06/22 09:23:40;;;;;;;2.13;0.60;;;26.80;66.70;;;;;;5059023;28;20024;-77
2022/06/22 09:26:36;;;;;;;2.83;0.40;;;27.00;65.80;;;;;;5051445;28;20055;-76
2022/06/22 09:29:29;;;;;;;1.35;0.40;;;27.20;65.30;;;;;;5051654;28;20028;-76
2022/06/22 09:32:00;;;;;;;1.25;0.40;;;27.30;63.80;;;;;;5046196;28;20036;-76
2022/06/22 09:34:49;;;;;;;2.10;0.40;;;27.30;62.40;;;;;;5050563;28;20048;-77
2022/06/22 09:37:52;;;;;;;2.83;0.50;;;27.20;61.00;;;;;;5054968;28;20036;-74
2022/06/22 09:41:06;;;;;;;12.15;1.50;;;27.20;61.90;;;;;;5050569;28;20044;-74
2022/06/22 09:43:43;;;;;;;2.55;0.57;;;27.20;62.30;;;;;;4949081;28;22605;-74
2022/06/22 09:46:28;;;;;;;2.05;0.50;;;27.20;61.90;;;;;;4979936;28;20537;-74
2022/06/22 09:49:21;;;;;;;3.55;0.40;;;27.20;61.10;;;;;;5029101;28;20063;-74
2022/06/22 09:52:11;;;;;;;2.42;0.40;;;27.30;60.70;;;;;;5058554;28;20420;-74
2022/06/22 09:58:21;;;;;;;1.50;0.50;;;27.40;59.20;;;;;;5052036;28;20043;-74
2022/06/22 10:01:02;;;;;;;1.33;0.40;;;27.50;59.30;;;;;;5034047;28;20035;-73
2022/06/22 10:03:50;;;;;;;1.38;0.40;;;27.50;59.60;;;;;;5048878;28;20361;-74
2022/06/22 10:06:32;;;;;;;1.77;0.40;;;27.60;58.30;;;;;;5058972;28;20024;-73
2022/06/22 10:09:25;;;;;;;4.45;0.60;;;27.50;57.60;;;;;;5052686;28;20120;-74
2022/06/22 10:12:32;;;;;;;2.47;0.40;;;27.50;56.70;;;;;;5070605;28;20028;-74
2022/06/22 10:15:07;;;;;;;2.28;0.50;;;27.50;57.20;;;;;;5048703;28;20029;-74
2022/06/22 10:18:11;;;;;;;4.13;0.40;;;27.60;56.90;;;;;;5023529;28;21051;-74
2022/06/22 10:21:15;;;;;;;3.00;0.50;;;27.80;57.40;;;;;;5053674;28;20021;-74
2022/06/22 10:23:59;;;;;;;2.40;0.40;;;27.90;56.20;;;;;;5014203;28;20029;-73
2022/06/22 10:27:03;;;;;;;2.30;0.50;;;28.00;56.90;;;;;;5013384;28;20457;-74
2022/06/22 10:29:51;;;;;;;3.10;0.60;;;28.20;55.50;;;;;;5033989;28;20116;-77
2022/06/22 10:32:42;;;;;;;1.98;0.40;;;28.20;54.80;;;;;;5049505;28;20671;-77
2022/06/22 10:35:23;;;;;;;2.08;0.63;;;28.10;55.00;;;;;;5051478;28;20036;-77
2022/06/22 10:38:15;;;;;;;2.72;0.50;;;28.30;54.80;;;;;;5072126;28;20407;-77
2022/06/22 10:47:08;;;;;;;2.28;0.40;;;28.40;54.30;;;;;;5036250;28;20026;-77
2022/06/22 10:49:48;;;;;;;2.10;0.50;;;28.60;54.90;;;;;;5052824;28;20032;-76
2022/06/22 10:52:23;;;;;;;2.72;0.50;;;28.90;54.40;;;;;;5044602;28;20025;-76
2022/06/22 10:55:02;;;;;;;4.00;0.57;;;29.20;53.60;;;;;;5048500;28;20468;-76
2022/06/22 10:57:43;;;;;;;0.90;0.40;;;29.30;53.20;;;;;;5051799;28;20360;-76
2022/06/22 11:00:37;;;;;;;1.80;0.50;;;29.50;53.40;;;;;;5055645;28;20029;-76
2022/06/22 11:03:22;;;;;;;3.70;0.50;;;29.90;52.80;;;;;;5048754;28;20049;-76
2022/06/22 11:06:32;;;;;;;2.80;0.60;;;30.10;51.60;;;;;;5057604;28;20457;-76
2022/06/22 11:09:07;;;;;;;1.73;0.45;;;30.40;50.10;;;;;;5050895;28;20004;-76
2022/06/22 11:11:50;;;;;;;2.42;0.40;;;30.70;49.60;;;;;;5048906;28;20025;-76
2022/06/22 11:14:55;;;;;;;1.30;0.40;;;31.10;49.20;;;;;;5051407;28;20025;-78
2022/06/22 11:17:48;;;;;;;2.72;0.50;;;31.30;48.60;;;;;;5044781;28;20491;-76
2022/06/22 11:20:39;;;;;;;2.03;0.40;;;31.50;48.70;;;;;;5051829;28;20356;-76
2022/06/22 11:23:11;;;;;;;0.90;0.43;;;31.60;48.30;;;;;;5051578;28;20044;-76
2022/06/22 11:32:25;;;;;;;3.28;0.30;;;32.50;46.90;;;;;;5051224;28;20017;-76
2022/06/22 11:35:47;;;;;;;3.88;1.73;;;32.70;46.80;;;;;;5044496;28;20048;-76
2022/06/22 11:38:35;;;;;;;1.45;1.20;;;33.00;45.60;;;;;;4961110;28;20050;-76
2022/06/22 11:41:26;;;;;;;3.47;2.08;;;33.30;45.80;;;;;;5048928;28;20460;-77
2022/06/22 11:44:24;;;;;;;3.97;1.33;;;33.50;45.80;;;;;;5056617;28;20013;-76
2022/06/22 11:47:05;;;;;;;2.00;0.70;;;33.70;44.90;;;;;;5057189;28;20035;-74
2022/06/22 11:50:04;;;;;;;1.73;0.70;;;33.70;45.10;;;;;;5052124;28;21608;-74
2022/06/22 11:53:06;;;;;;;71.05;19.58;;;33.90;45.00;;;;;;5053448;28;20048;-75
2022/06/22 11:55:39;;;;;;;4.20;0.80;;;34.10;48.60;;;;;;5058589;28;20349;-74
2022/06/22 11:58:24;;;;;;;4.45;0.70;;;34.30;45.90;;;;;;5068174;28;20448;-74
2022/06/22 12:01:22;;;;;;;4.55;1.20;;;34.50;44.60;;;;;;5054357;28;20058;-77
2022/06/22 12:04:12;;;;;;;2.55;0.57;;;34.80;43.50;;;;;;5058578;28;20039;-77
2022/06/22 12:06:53;;;;;;;2.38;0.43;;;34.80;42.10;;;;;;5056007;28;20036;-77
2022/06/22 12:09:25;;;;;;;2.42;0.60;;;35.00;42.20;;;;;;5074416;28;20024;-77
2022/06/22 12:12:27;;;;;;;2.92;0.60;;;35.30;41.80;;;;;;5052709;28;20059;-77
2022/06/22 12:15:16;;;;;;;5.45;0.68;;;35.50;41.30;;;;;;5055599;28;20025;-77
2022/06/22 12:18:08;;;;;;;3.63;0.70;;;35.70;42.00;;;;;;5057183;28;20033;-77
2022/06/22 12:20:39;;;;;;;3.92;1.60;;;36.10;41.80;;;;;;5044159;28;20383;-78
2022/06/22 12:23:18;;;;;;;2.15;0.60;;;36.40;40.60;;;;;;5055191;28;20036;-77
2022/06/22 12:25:59;;;;;;;4.55;1.02;;;36.30;40.10;;;;;;5060647;28;20021;-77
2022/06/22 12:28:44;;;;;;;;;;;36.40;39.80;;;;;;5055073;28;20471;-77
2022/06/22 12:31:20;;;;;;;3.03;0.40;;;36.40;39.20;;;;;;5052284;28;19905;-77
2022/06/22 12:34:13;;;;;;;1.80;0.47;;;36.30;39.70;;;;;;5057384;28;20401;-77
2022/06/22 12:36:45;;;;;;;45.40;15.05;;;36.50;40.00;;;;;;5051540;28;20044;-78
2022/06/22 12:39:21;;;;;;;48.08;16.83;;;36.90;43.20;;;;;;5054637;28;20013;-78
2022/06/22 12:42:14;;;;;;;4.97;0.98;;;37.20;43.60;;;;;;5071923;28;20032;-77
2022/06/22 12:44:57;;;;;;;5.78;1.13;;;36.70;41.70;;;;;;5069111;28;20027;-78
2022/06/22 12:47:57;;;;;;;3.17;0.60;;;36.70;43.70;;;;;;5075122;28;20017;-78
2022/06/22 12:50:38;;;;;;;5.05;1.08;;;37.10;44.00;;;;;;5036511;28;20044;-78
2022/06/22 12:53:18;;;;;;;1.92;0.40;;;37.80;42.00;;;;;;5052158;28;20032;-78
2022/06/22 12:55:57;;;;;;;8.60;2.10;;;38.20;39.20;;;;;;5071319;28;20047;-77
2022/06/22 12:58:31;;;;;;;3.63;0.70;;;38.20;40.50;;;;;;5053823;28;20032;-78
2022/06/22 13:00:58;;;;;;;7.25;1.65;;;38.30;39.10;;;;;;5068906;28;20025;-77
2022/06/22 13:03:40;;;;;;;5.22;1.38;;;38.30;39.10;;;;;;5071766;28;20040;-78
2022/06/22 13:06:07;;;;;;;1.38;0.40;;;38.50;39.10;;;;;;5041860;28;20032;-77
2022/06/22 13:08:34;;;;;;;1.58;0.40;;;38.40;37.70;;;;;;5072540;28;20025;-78
2022/06/22 13:11:11;;;;;;;2.67;0.40;;;38.40;37.40;;;;;;5053102;28;20017;-78
2022/06/22 13:13:44;;;;;;;0.95;0.40;;;38.60;36.60;;;;;;5052573;28;20512;-79
2022/06/22 13:16:35;;;;;;;2.13;0.30;;;38.60;36.30;;;;;;5050814;28;20025;-78
2022/06/22 13:19:38;;;;;;;2.70;0.80;;;39.00;37.40;;;;;;5067506;28;20028;-77
2022/06/22 13:22:23;;;;;;;1.35;0.50;;;39.50;35.70;;;;;;5038701;28;20040;-78
2022/06/22 13:24:57;;;;;;;1.65;0.30;;;39.60;35.80;;;;;;5050515;28;20380;-77
2022/06/22 13:27:41;;;;;;;0.65;0.30;;;39.90;36.00;;;;;;5057711;28;20047;-78
2022/06/22 13:30:46;;;;;;;1.98;0.40;;;40.30;35.50;;;;;;5049307;28;20387;-78
2022/06/22 13:33:46;;;;;;;1.45;0.30;;;40.80;34.10;;;;;;5050914;28;20036;-78
2022/06/22 13:36:50;;;;;;;1.70;0.40;;;40.70;34.60;;;;;;5056095;28;20418;-76
2022/06/22 13:39:50;;;;;;;3.58;0.30;;;40.70;33.80;;;;;;5051330;28;20036;-77
2022/06/22 13:42:52;;;;;;;1.02;0.40;;;40.60;33.10;;;;;;5055422;28;20028;-76
2022/06/22 13:45:52;;;;;;;3.45;0.73;;;40.60;32.50;;;;;;4981624;28;20044;-77
2022/06/22 13:48:37;;;;;;;2.22;0.90;;;40.40;32.60;;;;;;5054831;28;20021;-77
2022/06/22 13:51:35;;;;;;;1.65;0.40;;;40.70;32.20;;;;;;5052705;28;20029;-77
2022/06/22 13:54:16;;;;;;;2.00;0.60;;;41.00;32.00;;;;;;5049386;28;20032;-78
2022/06/22 13:57:17;;;;;;;2.17;0.50;;;41.20;32.50;;;;;;5053944;28;20020;-77
2022/06/22 13:59:51;;;;;;;2.03;0.40;;;41.50;32.20;;;;;;5048964;28;20021;-77
2022/06/22 14:02:27;;;;;;;3.38;0.93;;;41.60;32.00;;;;;;5052490;28;20027;-77
2022/06/22 14:04:58;;;;;;;2.28;0.50;;;41.90;33.30;;;;;;5053369;28;20043;-77
2022/06/22 14:07:33;;;;;;;2.17;0.40;;;42.30;32.50;;;;;;5052067;28;20040;-77
2022/06/22 14:10:20;;;;;;;1.92;0.50;;;42.60;32.10;;;;;;5034884;28;20032;-77
2022/06/22 14:12:53;;;;;;;1.50;0.50;;;42.70;31.90;;;;;;5071219;28;20045;-76
2022/06/22 14:15:36;;;;;;;2.58;0.40;;;42.70;31.40;;;;;;5058964;28;20017;-76
2022/06/22 14:18:12;;;;;;;5.32;1.05;;;42.60;31.10;;;;;;5072462;28;20080;-77
2022/06/22 14:21:10;;;;;;;1.02;0.40;;;42.80;31.50;;;;;;5042811;28;20033;-76
2022/06/22 14:23:39;;;;;;;2.78;0.52;;;43.10;30.70;;;;;;5054933;28;20031;-78